createdAt,value
2022-11-16T00:02:24.075Z,63.38
2022-11-16T00:05:28.587Z,56.58
2022-11-16T00:08:35.613Z,58.33
2022-11-16T00:11:39.419Z,55.90
2022-11-16T00:14:42.750Z,57.67
2022-11-16T00:17:46.018Z,57.17
2022-11-16T00:20:50.245Z,57.22
2022-11-16T00:23:53.884Z,53.38
2022-11-16T00:26:58.418Z,52.57
2022-11-16T00:30:02.311Z,57.67
2022-11-16T00:33:07.100Z,50.33
2022-11-16T00:36:12.726Z,57.08
2022-11-16T00:39:17.145Z,55.30
2022-11-16T00:42:22.451Z,54.43
2022-11-16T00:45:27.019Z,51.77
2022-11-16T00:48:30.847Z,56.58
2022-11-16T00:51:35.953Z,58.17
2022-11-16T00:54:39.523Z,55.15
2022-11-16T00:57:42.902Z,52.27
2022-11-16T01:00:46.911Z,50.93
2022-11-16T01:03:50.569Z,47.63
2022-11-16T01:06:54.027Z,46.22
2022-11-16T01:10:00.550Z,50.67
2022-11-16T01:13:03.881Z,42.37
2022-11-16T01:16:07.410Z,46.90
2022-11-16T01:19:10.790Z,41.00
2022-11-16T01:22:21.528Z,38.15
2022-11-16T01:25:25.090Z,33.95
2022-11-16T01:28:30.483Z,37.00
2022-11-16T01:31:34.170Z,35.63
2022-11-16T01:34:39.522Z,41.08
2022-11-16T01:37:54.961Z,40.58
2022-11-16T01:40:58.890Z,35.20
2022-11-16T01:44:07.264Z,32.90
2022-11-16T01:47:20.135Z,35.23
2022-11-16T01:50:23.954Z,33.67
2022-11-16T01:53:28.513Z,34.60
2022-11-16T01:56:36.153Z,34.25
2022-11-16T01:59:52.382Z,35.10
2022-11-16T02:02:57.720Z,35.33
2022-11-16T02:06:17.800Z,35.63
2022-11-16T02:09:42.132Z,35.40
2022-11-16T02:13:14.207Z,33.88
2022-11-16T02:16:28.329Z,33.07
2022-11-16T02:20:09.582Z,40.70
2022-11-16T02:23:31.554Z,37.90
2022-11-16T02:26:44.116Z,32.78
2022-11-16T02:29:54.726Z,34.97
2022-11-16T02:33:04.882Z,35.10
2022-11-16T02:36:14.692Z,34.63
2022-11-16T02:39:23.265Z,31.48
2022-11-16T02:42:42.011Z,28.02
2022-11-16T02:45:49.899Z,31.25
2022-11-16T02:48:57.541Z,32.23
2022-11-16T02:52:03.101Z,31.47
2022-11-16T02:55:07.133Z,33.92
2022-11-16T02:58:13.753Z,33.08
2022-11-16T03:01:25.021Z,33.22
2022-11-16T03:04:40.914Z,30.83
2022-11-16T03:07:53.815Z,29.47
2022-11-16T03:11:22.821Z,36.17
2022-11-16T03:14:42.385Z,32.17
2022-11-16T03:17:49.997Z,32.85
2022-11-16T03:21:03.917Z,31.73
2022-11-16T03:24:07.825Z,31.37
2022-11-16T03:27:42.882Z,33.28
2022-11-16T03:31:01.046Z,33.08
2022-11-16T03:34:12.722Z,29.83
2022-11-16T03:37:16.660Z,31.03
2022-11-16T03:40:22.500Z,30.93
2022-11-16T03:43:28.582Z,29.85
2022-11-16T03:46:31.991Z,30.20
2022-11-16T03:49:35.765Z,31.27
2022-11-16T03:52:39.545Z,30.57
2022-11-16T03:55:48.472Z,31.63
2022-11-16T03:58:53.522Z,32.50
2022-11-16T04:01:56.970Z,31.40
2022-11-16T04:05:18.766Z,29.77
2022-11-16T04:09:00.481Z,32.93
2022-11-16T04:12:22.184Z,30.80
2022-11-16T04:15:44.186Z,31.38
2022-11-16T04:19:06.396Z,29.83
2022-11-16T04:22:43.289Z,29.60
2022-11-16T04:25:48.294Z,29.17
2022-11-16T04:28:53.366Z,29.17
2022-11-16T04:32:16.201Z,29.23
2022-11-16T04:35:37.994Z,28.63
2022-11-16T04:38:41.598Z,29.38
2022-11-16T04:42:03.551Z,28.57
2022-11-16T04:45:27.131Z,29.70
2022-11-16T04:48:30.870Z,28.58
2022-11-16T04:51:34.330Z,29.73
2022-11-16T04:54:38.561Z,27.33
2022-11-16T04:57:43.014Z,29.90
2022-11-16T05:00:48.275Z,29.97
2022-11-16T05:03:51.669Z,29.70
2022-11-16T05:06:55.226Z,29.85
2022-11-16T05:09:59.357Z,31.45
2022-11-16T05:13:03.799Z,32.87
2022-11-16T05:16:07.576Z,36.13
2022-11-16T05:19:29.674Z,33.00
2022-11-16T05:22:36.220Z,31.05
2022-11-16T05:25:40.154Z,34.03
2022-11-16T05:28:47.501Z,34.83
2022-11-16T05:31:50.999Z,36.10
2022-11-16T05:34:55.364Z,34.17
2022-11-16T05:38:00.290Z,33.17
2022-11-16T05:41:04.111Z,34.38
2022-11-16T05:44:07.489Z,34.43
2022-11-16T05:47:11.026Z,35.00
2022-11-16T05:50:14.805Z,38.10
2022-11-16T05:53:22.712Z,39.88
2022-11-16T05:56:26.345Z,37.17
2022-11-16T05:59:31.286Z,38.17
2022-11-16T06:02:37.216Z,39.43
2022-11-16T06:05:40.936Z,36.70
2022-11-16T06:08:47.298Z,44.10
2022-11-16T06:11:55.921Z,40.83
2022-11-16T06:14:59.399Z,42.10
2022-11-16T06:18:05.759Z,36.53
2022-11-16T06:21:10.048Z,41.05
2022-11-16T06:24:13.682Z,42.72
2022-11-16T06:27:18.451Z,52.78
2022-11-16T06:30:22.647Z,44.10
2022-11-16T06:33:32.188Z,48.40
2022-11-16T06:36:39.093Z,43.50
2022-11-16T06:39:43.173Z,52.40
2022-11-16T06:42:47.000Z,50.75
2022-11-16T06:45:52.850Z,59.07
2022-11-16T06:48:57.940Z,60.27
2022-11-16T06:52:01.716Z,49.20
2022-11-16T06:55:05.755Z,49.47
2022-11-16T06:58:11.132Z,55.85
2022-11-16T07:01:15.296Z,80.17
2022-11-16T07:04:21.321Z,93.27
2022-11-16T07:07:30.164Z,101.10
2022-11-16T07:10:34.272Z,114.20
2022-11-16T07:13:38.859Z,97.15
2022-11-16T07:16:43.248Z,109.33
2022-11-16T07:19:47.458Z,102.67
2022-11-16T07:22:52.189Z,110.95
2022-11-16T07:25:59.417Z,104.28
2022-11-16T07:29:10.821Z,102.63
2022-11-16T07:32:18.892Z,93.17
2022-11-16T07:35:51.177Z,91.73
2022-11-16T07:38:56.141Z,98.57
2022-11-16T07:42:00.514Z,96.45
2022-11-16T07:45:20.008Z,108.13
2022-11-16T07:48:30.373Z,97.03
2022-11-16T07:52:10.327Z,96.80
2022-11-16T07:55:25.752Z,94.43
2022-11-16T07:58:31.739Z,84.68
2022-11-16T08:01:35.958Z,88.35
2022-11-16T08:04:39.510Z,90.67
2022-11-16T08:07:44.335Z,91.07
2022-11-16T08:10:48.425Z,86.72
2022-11-16T08:13:52.091Z,83.15
2022-11-16T08:16:56.681Z,88.78
2022-11-16T08:20:00.275Z,93.20
2022-11-16T08:23:03.756Z,91.73
2022-11-16T08:26:16.548Z,86.10
2022-11-16T08:29:28.816Z,91.80
2022-11-16T08:32:34.260Z,89.45
2022-11-16T08:35:37.884Z,91.03
2022-11-16T08:38:41.576Z,86.57
2022-11-16T08:41:45.691Z,89.40
2022-11-16T08:44:49.762Z,92.75
2022-11-16T08:48:03.413Z,95.03
2022-11-16T08:51:18.125Z,83.47
2022-11-16T08:54:29.906Z,90.50
2022-11-16T08:57:33.929Z,105.15
2022-11-16T09:00:41.789Z,88.47
2022-11-16T09:03:45.765Z,91.43
2022-11-16T09:06:49.366Z,89.40
2022-11-16T09:09:52.863Z,91.53
2022-11-16T09:12:56.468Z,89.90
2022-11-16T09:16:01.100Z,86.78
2022-11-16T09:19:04.714Z,81.63
2022-11-16T09:22:08.620Z,91.07
2022-11-16T09:25:12.070Z,97.47
2022-11-16T09:28:19.735Z,90.65
2022-11-16T09:31:23.948Z,90.85
2022-11-16T09:34:27.768Z,87.00
2022-11-16T09:37:31.298Z,88.27
2022-11-16T09:40:40.757Z,60.40
2022-11-16T09:44:12.919Z,63.47
2022-11-16T09:47:26.825Z,61.60
2022-11-16T09:50:43.452Z,68.10
2022-11-16T09:53:53.482Z,62.93
2022-11-16T09:57:00.532Z,69.90
2022-11-16T10:00:13.986Z,64.68
2022-11-16T10:03:17.620Z,73.15
2022-11-16T10:06:26.421Z,75.22
2022-11-16T10:09:31.717Z,69.37
2022-11-16T10:12:51.775Z,71.37
2022-11-16T10:16:09.828Z,71.97
2022-11-16T10:19:25.196Z,76.03
2022-11-16T10:22:41.241Z,67.32
2022-11-16T10:25:46.479Z,73.10
2022-11-16T10:28:57.593Z,69.03
2022-11-16T10:32:13.113Z,77.72
2022-11-16T10:35:22.794Z,68.82
2022-11-16T10:38:33.211Z,84.07
2022-11-16T10:41:43.693Z,83.83
2022-11-16T10:45:10.050Z,80.10
2022-11-16T10:48:37.317Z,70.43
2022-11-16T10:51:40.822Z,66.20
2022-11-16T10:54:44.652Z,64.63
2022-11-16T10:57:56.700Z,62.53
2022-11-16T11:01:00.371Z,60.30
2022-11-16T11:04:24.958Z,58.85
2022-11-16T11:07:37.883Z,65.13
2022-11-16T11:10:42.584Z,59.85
2022-11-16T11:13:46.364Z,59.53
2022-11-16T11:16:54.142Z,61.00
2022-11-16T11:20:00.626Z,58.22
2022-11-16T11:23:20.671Z,50.63
2022-11-16T11:26:37.230Z,50.15
2022-11-16T11:29:43.079Z,43.57
2022-11-16T11:32:47.841Z,37.73
2022-11-16T11:36:32.608Z,37.83
2022-11-16T11:39:37.594Z,45.25
2022-11-16T11:42:51.332Z,40.78
2022-11-16T11:45:57.886Z,44.47
2022-11-16T11:49:33.290Z,46.63
2022-11-16T11:53:08.327Z,43.67
2022-11-16T11:56:14.612Z,42.50
2022-11-16T11:59:25.182Z,45.80
2022-11-16T12:02:34.377Z,46.80
2022-11-16T12:06:02.365Z,41.17
2022-11-16T12:09:20.495Z,42.03
2022-11-16T12:12:23.995Z,39.90
2022-11-16T12:15:52.146Z,40.58
2022-11-16T12:19:14.600Z,42.00
2022-11-16T12:22:30.196Z,38.10
2022-11-16T12:25:53.877Z,40.05
2022-11-16T12:29:02.968Z,45.20
2022-11-16T12:32:22.962Z,47.65
2022-11-16T12:35:48.883Z,52.00
2022-11-16T12:39:10.737Z,42.77
2022-11-16T12:42:38.467Z,44.88
2022-11-16T12:45:54.490Z,40.13
2022-11-16T12:49:19.418Z,38.30
2022-11-16T12:52:54.952Z,46.30
2022-11-16T12:56:05.240Z,45.30
2022-11-16T12:59:44.373Z,45.55
2022-11-16T13:03:12.527Z,42.72
2022-11-16T13:06:33.913Z,39.58
2022-11-16T13:09:40.820Z,40.13
2022-11-16T13:12:47.494Z,36.33
2022-11-16T13:15:52.089Z,35.08
2022-11-16T13:18:56.656Z,36.80
2022-11-16T13:22:22.955Z,33.80
2022-11-16T13:25:48.950Z,32.23
2022-11-16T13:29:16.484Z,29.40
2022-11-16T13:32:24.994Z,34.55
2022-11-16T13:35:28.652Z,33.22
2022-11-16T13:38:54.115Z,31.88
2022-11-16T13:42:13.123Z,31.37
2022-11-16T13:45:22.868Z,32.17
2022-11-16T13:48:34.629Z,33.50
2022-11-16T13:51:38.669Z,33.45
2022-11-16T13:54:47.077Z,36.70
2022-11-16T13:57:53.293Z,33.00
2022-11-16T14:01:08.907Z,38.93
2022-11-16T14:04:53.948Z,41.08
2022-11-16T14:07:57.280Z,42.72
2022-11-16T14:11:01.458Z,41.75
2022-11-16T14:14:11.607Z,41.40
2022-11-16T14:17:53.018Z,40.00
2022-11-16T14:21:12.250Z,46.28
2022-11-16T14:24:39.315Z,43.33
2022-11-16T14:27:46.105Z,46.60
2022-11-16T14:30:57.391Z,43.00
2022-11-16T14:34:01.989Z,45.00
2022-11-16T14:37:05.898Z,46.05
2022-11-16T14:40:17.245Z,42.63
2022-11-16T14:43:31.607Z,46.03
2022-11-16T14:46:38.176Z,42.27
2022-11-16T14:49:43.314Z,44.30
2022-11-16T14:52:51.141Z,45.08
2022-11-16T14:56:16.366Z,39.80
2022-11-16T14:59:20.425Z,39.63
2022-11-16T15:02:26.763Z,39.00
2022-11-16T15:05:35.657Z,34.77
2022-11-16T15:09:00.899Z,36.47
2022-11-16T15:12:30.317Z,40.70
2022-11-16T15:15:34.247Z,37.72
2022-11-16T15:18:38.060Z,36.20
2022-11-16T15:21:51.995Z,35.27
2022-11-16T15:25:00.432Z,38.83
2022-11-16T15:28:06.309Z,37.05
2022-11-16T15:31:15.010Z,38.28
2022-11-16T15:34:19.907Z,42.97
2022-11-16T15:37:32.210Z,41.47
2022-11-16T15:40:35.946Z,37.90
2022-11-16T15:44:01.494Z,43.65
2022-11-16T15:47:10.458Z,36.50
2022-11-16T15:50:23.236Z,39.97
2022-11-16T15:53:53.627Z,34.30
2022-11-16T15:57:05.729Z,36.22
2022-11-16T16:00:22.989Z,41.88
2022-11-16T16:03:34.706Z,40.40
2022-11-16T16:06:45.620Z,41.23
2022-11-16T16:09:49.308Z,36.53
2022-11-16T16:12:58.060Z,37.67
2022-11-16T16:16:24.183Z,40.75
2022-11-16T16:19:45.377Z,45.45
2022-11-16T16:22:49.142Z,37.33
2022-11-16T16:25:52.449Z,44.80
2022-11-16T16:28:56.034Z,40.03
2022-11-16T16:31:59.465Z,45.42
2022-11-16T16:35:05.896Z,43.10
2022-11-16T16:38:14.018Z,47.23
2022-11-16T16:41:24.307Z,43.87
2022-11-16T16:44:28.059Z,44.60
2022-11-16T16:47:32.101Z,43.70
2022-11-16T16:50:36.150Z,41.85
2022-11-16T16:53:39.694Z,45.00
2022-11-16T16:56:43.194Z,47.30
2022-11-16T16:59:48.373Z,46.28
2022-11-16T17:02:52.037Z,43.63
2022-11-16T17:06:01.244Z,47.35
2022-11-16T17:09:04.934Z,47.80
2022-11-16T17:12:08.704Z,44.03
2022-11-16T17:15:18.015Z,42.42
2022-11-16T17:18:23.709Z,43.67
2022-11-16T17:21:27.264Z,41.95
2022-11-16T17:24:30.755Z,40.13
2022-11-16T17:27:34.201Z,44.23
2022-11-16T17:30:37.717Z,41.58
2022-11-16T17:33:42.627Z,36.17
2022-11-16T17:36:46.099Z,37.50
2022-11-16T17:39:49.441Z,38.60
2022-11-16T17:42:53.004Z,39.30
2022-11-16T17:46:05.617Z,43.70
2022-11-16T17:49:09.197Z,42.95
2022-11-16T17:52:12.900Z,36.47
2022-11-16T17:55:16.653Z,42.47
2022-11-16T17:58:20.056Z,36.80
2022-11-16T18:01:25.423Z,40.58
2022-11-16T18:04:29.207Z,39.45
2022-11-16T18:07:33.612Z,40.10
2022-11-16T18:10:38.350Z,42.93
2022-11-16T18:13:43.449Z,45.07
2022-11-16T18:16:48.019Z,45.45
2022-11-16T18:19:51.581Z,43.70
2022-11-16T18:22:56.352Z,43.40
2022-11-16T18:26:00.070Z,41.53
2022-11-16T18:29:04.459Z,42.27
2022-11-16T18:32:09.527Z,42.97
2022-11-16T18:35:13.131Z,43.70
2022-11-16T18:38:17.931Z,41.75
2022-11-16T18:41:23.996Z,39.67
2022-11-16T18:44:27.783Z,43.97
2022-11-16T18:47:31.588Z,44.50
2022-11-16T18:50:35.269Z,43.88
2022-11-16T18:53:38.833Z,37.65
2022-11-16T18:56:42.597Z,39.57
2022-11-16T18:59:46.032Z,40.70
2022-11-16T19:02:49.644Z,43.40
2022-11-16T19:06:01.732Z,41.50
2022-11-16T19:09:09.634Z,45.90
2022-11-16T19:12:13.174Z,38.30
2022-11-16T19:15:16.929Z,40.83
2022-11-16T19:18:22.030Z,44.38
2022-11-16T19:21:26.401Z,41.10
2022-11-16T19:24:30.228Z,41.55
2022-11-16T19:27:34.092Z,41.63
2022-11-16T19:30:37.827Z,43.03
2022-11-16T19:33:42.218Z,41.35
2022-11-16T19:36:45.920Z,43.83
2022-11-16T19:39:49.602Z,41.50
2022-11-16T19:42:54.009Z,39.47
2022-11-16T19:46:12.115Z,39.03
2022-11-16T19:49:20.107Z,42.08
2022-11-16T19:52:23.922Z,40.70
2022-11-16T19:55:28.578Z,40.30
2022-11-16T19:58:34.638Z,43.40
2022-11-16T20:01:38.293Z,43.90
2022-11-16T20:04:41.684Z,46.30
2022-11-16T20:07:45.265Z,42.40
2022-11-16T20:10:48.600Z,43.85
2022-11-16T20:13:53.971Z,44.50
2022-11-16T20:16:59.037Z,44.07
2022-11-16T20:20:02.721Z,40.10
2022-11-16T20:23:06.378Z,43.47
2022-11-16T20:26:10.931Z,42.28
2022-11-16T20:29:16.876Z,47.87
2022-11-16T20:32:20.518Z,41.83
2022-11-16T20:35:23.910Z,46.22
2022-11-16T20:38:27.503Z,46.13
2022-11-16T20:41:33.279Z,42.80
2022-11-16T20:44:36.649Z,42.60
2022-11-16T20:47:40.329Z,46.63
2022-11-16T20:50:45.556Z,40.17
2022-11-16T20:53:50.408Z,45.05
2022-11-16T20:56:54.106Z,42.33
2022-11-16T20:59:57.483Z,39.43
2022-11-16T21:03:01.006Z,39.47
2022-11-16T21:06:04.902Z,40.80
2022-11-16T21:09:10.873Z,40.70
2022-11-16T21:12:32.735Z,35.20
2022-11-16T21:15:36.204Z,39.37
2022-11-16T21:18:40.437Z,34.23
2022-11-16T21:21:43.862Z,37.90
2022-11-16T21:24:47.172Z,39.20
2022-11-16T21:27:50.705Z,35.70
2022-11-16T21:30:57.027Z,28.60
2022-11-16T21:34:01.397Z,33.97
2022-11-16T21:37:04.712Z,41.05
2022-11-16T21:40:08.757Z,31.85
2022-11-16T21:43:12.271Z,31.48
2022-11-16T21:46:17.980Z,33.60
2022-11-16T21:49:21.319Z,45.77
2022-11-16T21:52:24.652Z,32.47
2022-11-16T21:55:28.282Z,35.08
2022-11-16T21:58:31.641Z,37.45
2022-11-16T22:01:55.007Z,27.87
2022-11-16T22:05:16.998Z,28.23
2022-11-16T22:08:20.289Z,36.25
2022-11-16T22:11:23.996Z,41.05
2022-11-16T22:14:27.356Z,38.63
2022-11-16T22:17:30.700Z,33.80
2022-11-16T22:20:34.082Z,27.57
2022-11-16T22:23:38.280Z,33.20
2022-11-16T22:26:41.983Z,31.27
2022-11-16T22:29:45.715Z,28.65
2022-11-16T22:32:49.049Z,26.97
2022-11-16T22:35:52.334Z,25.90
2022-11-16T22:38:57.154Z,26.50
2022-11-16T22:42:00.468Z,24.27
2022-11-16T22:45:03.926Z,23.20
2022-11-16T22:48:07.275Z,20.67
2022-11-16T22:51:20.194Z,23.73
2022-11-16T22:54:28.448Z,23.27
2022-11-16T22:57:32.215Z,26.42
2022-11-16T23:00:40.605Z,28.15
2022-11-16T23:03:44.569Z,25.57
2022-11-16T23:06:47.964Z,24.00
2022-11-16T23:09:51.227Z,26.38
2022-11-16T23:13:13.106Z,27.23
2022-11-16T23:16:16.405Z,27.95
2022-11-16T23:19:40.016Z,29.67
2022-11-16T23:23:01.812Z,28.83
2022-11-16T23:26:30.298Z,29.15
2022-11-16T23:29:33.591Z,30.60
2022-11-16T23:32:36.981Z,31.30
2022-11-16T23:35:40.269Z,29.73
2022-11-16T23:38:43.827Z,27.03
2022-11-16T23:42:05.586Z,27.77
2022-11-16T23:45:09.223Z,29.20
2022-11-16T23:48:14.464Z,30.77
2022-11-16T23:51:19.392Z,31.77
2022-11-16T23:54:22.744Z,30.23
2022-11-16T23:57:26.107Z,27.05
